Time;durP1;ratioP1;P1;durP2;ratioP2;P2;SDS_P1;SDS_P2;PMS_P1;PMS_P2;Temp;Humidity;BMP_temperature;BMP_pressure;BME280_temperature;BME280_humidity;BME280_pressure;Samples;Min_cycle;Max_cycle;Signal;HPM_P1;HPM_P2
2022/05/11 00:00:08;;;;;;;8.02;6.78;;;;;;;14.09;nan;95395.81;5009809;28;20207;-76
2022/05/11 00:02:35;;;;;;;6.75;6.15;;;;;;;14.21;nan;95382.50;5011950;28;20799;-77
2022/05/11 00:05:02;;;;;;;6.90;6.20;;;;;;;14.33;nan;95393.09;5009985;28;20212;-77
2022/05/11 00:07:29;;;;;;;7.28;6.57;;;;;;;14.41;nan;95383.38;5009765;28;21446;-77
2022/05/11 00:09:57;;;;;;;8.75;5.82;;;;;;;14.32;nan;95387.16;5009175;28;20210;-78
2022/05/11 00:12:24;;;;;;;7.63;6.93;;;;;;;14.39;nan;95382.59;5009937;28;20408;-76
2022/05/11 00:14:51;;;;;;;12.05;7.20;;;;;;;13.84;nan;95380.66;5007245;28;20208;-76
2022/05/11 00:17:18;;;;;;;10.57;7.18;;;;;;;13.44;nan;95381.41;5009830;28;20232;-77
2022/05/11 00:19:45;;;;;;;12.88;7.35;;;;;;;13.44;nan;95383.97;5011171;28;20207;-77
2022/05/11 00:22:12;;;;;;;8.68;6.88;;;;;;;13.72;nan;95365.81;5008959;28;20858;-77
2022/05/11 00:24:39;;;;;;;7.43;6.72;;;;;;;14.10;nan;95366.81;5008742;28;20207;-77
2022/05/11 00:27:07;;;;;;;10.52;6.82;;;;;;;14.11;nan;95368.44;5008511;28;20220;-76
2022/05/11 00:29:34;;;;;;;9.07;7.05;;;;;;;13.94;nan;95370.88;5010258;28;20640;-76
2022/05/11 00:32:01;;;;;;;7.82;6.97;;;;;;;14.07;nan;95359.25;5009214;28;20313;-77
2022/05/11 00:34:28;;;;;;;11.88;7.30;;;;;;;14.25;nan;95363.56;5007851;28;20656;-76
2022/05/11 00:36:54;;;;;;;7.10;6.40;;;;;;;14.21;nan;95369.72;5005545;28;20200;-77
2022/05/11 00:39:21;;;;;;;7.25;6.35;;;;;;;13.71;nan;95360.78;5010227;28;20199;-77
2022/05/11 00:41:48;;;;;;;9.82;8.55;;;;;;;13.22;nan;95361.03;5009635;28;20208;-77
2022/05/11 00:44:16;;;;;;;15.70;10.45;;;;;;;13.28;nan;95354.84;5010420;28;20660;-76
2022/05/11 00:46:52;;;;;;;12.85;8.55;;;;;;;13.59;nan;95355.28;5010703;28;20215;-76
2022/05/11 00:49:34;;;;;;;12.70;9.45;;;;;;;13.50;nan;95358.22;5009572;28;20671;-76
2022/05/11 00:52:05;;;;;;;9.73;8.73;;;;;;;13.57;nan;95358.78;5004384;28;20223;-75
2022/05/11 00:54:38;;;;;;;10.13;8.98;;;;;;;13.62;nan;95359.41;5008101;28;20680;-75
2022/05/11 00:57:11;;;;;;;13.65;8.52;;;;;;;13.89;nan;95370.22;5008275;28;20254;-75
2022/05/11 00:59:44;;;;;;;8.35;7.45;;;;;;;13.93;nan;95359.00;5008088;28;20214;-75
2022/05/11 01:02:11;;;;;;;7.30;6.70;;;;;;;13.95;nan;95362.31;5008481;28;20266;-75
2022/05/11 01:04:41;;;;;;;8.32;7.10;;;;;;;14.14;nan;95373.41;5007769;28;20208;-75
2022/05/11 01:07:10;;;;;;;8.63;7.45;;;;;;;13.90;nan;95375.28;5007606;28;20547;-75
2022/05/11 01:09:38;;;;;;;10.65;7.18;;;;;;;13.95;nan;95372.53;5006607;28;20261;-76
2022/05/11 01:12:09;;;;;;;9.80;8.10;;;;;;;14.10;nan;95381.31;5008605;28;20239;-75
2022/05/11 01:14:39;;;;;;;7.15;6.55;;;;;;;14.01;nan;95372.28;5007526;28;20214;-76
2022/05/11 01:17:08;;;;;;;7.63;6.70;;;;;;;14.01;nan;95386.78;5008424;28;20251;-76
2022/05/11 01:19:39;;;;;;;9.55;6.90;;;;;;;13.81;nan;95373.13;5007404;28;20963;-75
2022/05/11 01:22:14;;;;;;;8.48;7.20;;;;;;;13.93;nan;95364.94;5008942;28;20298;-75
2022/05/11 01:24:44;;;;;;;10.35;7.65;;;;;;;13.50;nan;95372.69;5008060;28;20210;-75
2022/05/11 01:27:30;;;;;;;8.23;7.50;;;;;;;12.90;nan;95374.13;5009034;28;20251;-74
2022/05/11 01:29:59;;;;;;;8.32;7.03;;;;;;;12.69;nan;95375.75;5008952;28;20694;-75
2022/05/11 01:32:27;;;;;;;8.05;7.25;;;;;;;12.65;nan;95379.31;5008730;28;20231;-75
2022/05/11 01:35:02;;;;;;;9.80;7.45;;;;;;;12.56;nan;95374.56;5006925;28;20302;-75
2022/05/11 01:37:29;;;;;;;7.18;6.55;;;;;;;12.44;nan;95375.00;5009125;28;20666;-75
2022/05/11 01:39:57;;;;;;;9.45;6.32;;;;;;;12.35;nan;95371.06;5007730;28;20235;-75
2022/05/11 01:42:24;;;;;;;11.88;7.13;;;;;;;12.33;nan;95366.91;5007568;28;20703;-75
2022/05/11 01:44:50;;;;;;;10.63;6.55;;;;;;;12.01;nan;95345.09;5007485;28;20203;-75
2022/05/11 01:47:17;;;;;;;13.43;7.53;;;;;;;12.13;nan;95376.06;5014214;28;20219;-75
2022/05/11 01:49:44;;;;;;;6.20;5.75;;;;;;;12.21;nan;95370.72;5018431;28;20212;-75
2022/05/11 01:52:11;;;;;;;10.02;6.07;;;;;;;12.59;nan;95380.38;5007835;28;20605;-75
2022/05/11 01:54:38;;;;;;;6.65;5.90;;;;;;;12.85;nan;95371.78;5008329;28;20210;-75
2022/05/11 01:57:06;;;;;;;6.07;5.68;;;;;;;13.19;nan;95371.34;5009625;28;20210;-75
2022/05/11 01:59:33;;;;;;;7.28;5.05;;;;;;;13.45;nan;95361.81;5006077;28;20203;-75
2022/05/11 02:02:00;;;;;;;6.78;6.20;;;;;;;13.31;nan;95359.00;5009197;28;20196;-75
2022/05/11 02:09:56;;;;;;;9.40;5.93;;;;;;;13.12;nan;95374.16;5007625;28;20238;-76
2022/05/11 02:12:24;;;;;;;6.30;5.70;;;;;;;13.27;nan;95369.34;5006776;28;20227;-75
2022/05/11 02:14:51;;;;;;;6.30;5.68;;;;;;;13.38;nan;95361.22;5008646;28;20199;-75
2022/05/11 02:17:20;;;;;;;6.10;5.35;;;;;;;13.48;nan;95366.81;5009148;28;20238;-75
2022/05/11 02:19:47;;;;;;;5.18;4.68;;;;;;;13.47;nan;95376.19;5006910;28;20730;-75
2022/05/11 02:22:14;;;;;;;6.07;4.75;;;;;;;13.45;nan;95375.44;5007212;28;20294;-75
2022/05/11 02:24:41;;;;;;;7.03;5.13;;;;;;;13.39;nan;95368.00;5007046;28;20211;-76
2022/05/11 02:27:07;;;;;;;5.57;5.05;;;;;;;12.86;nan;95363.25;5007187;28;20215;-76
2022/05/11 02:29:36;;;;;;;6.03;5.40;;;;;;;12.52;nan;95365.38;5008658;28;20207;-76
2022/05/11 02:32:03;;;;;;;5.53;5.13;;;;;;;12.56;nan;95364.38;5008086;28;20238;-76
2022/05/11 02:37:15;;;;;;;8.27;5.07;;;;;;;12.47;nan;95362.16;5007642;28;20293;-75
2022/05/11 02:39:42;;;;;;;6.07;5.47;;;;;;;12.44;nan;95369.91;5006089;28;20203;-76
2022/05/11 02:42:09;;;;;;;6.15;5.47;;;;;;;12.57;nan;95371.97;5005669;28;20711;-74
2022/05/11 02:44:38;;;;;;;9.40;5.85;;;;;;;12.18;nan;95365.72;5007291;28;20214;-73
2022/05/11 02:47:05;;;;;;;7.72;5.80;;;;;;;12.05;nan;95361.94;5006679;28;20234;-75
2022/05/11 02:49:32;;;;;;;5.38;4.95;;;;;;;11.99;nan;95367.25;5006449;28;20254;-74
2022/05/11 02:51:59;;;;;;;11.52;5.95;;;;;;;11.96;nan;95373.28;5005763;28;20204;-74
2022/05/11 02:54:25;;;;;;;10.43;5.70;;;;;;;11.85;nan;95370.28;5009481;28;20361;-73
2022/05/11 02:56:52;;;;;;;5.75;5.28;;;;;;;11.83;nan;95377.13;5005715;28;20203;-74
2022/05/11 02:59:19;;;;;;;6.25;5.32;;;;;;;11.93;nan;95379.28;5007609;28;20204;-74
2022/05/11 03:01:47;;;;;;;6.05;5.55;;;;;;;11.86;nan;95377.03;5006030;28;20211;-75
2022/05/11 03:04:14;;;;;;;10.02;6.18;;;;;;;11.84;nan;95388.97;5006361;28;20212;-74
2022/05/11 03:06:42;;;;;;;17.48;6.15;;;;;;;11.65;nan;95377.69;5004528;28;20211;-74
2022/05/11 03:09:09;;;;;;;10.13;6.95;;;;;;;11.64;nan;95387.03;5004487;28;20203;-74
2022/05/11 03:11:36;;;;;;;8.35;6.13;;;;;;;12.00;nan;95385.03;5007092;28;20203;-76
2022/05/11 03:14:03;;;;;;;7.50;6.25;;;;;;;12.05;nan;95387.41;5005766;28;20281;-76
2022/05/11 03:16:30;;;;;;;11.85;6.82;;;;;;;11.99;nan;95393.56;5006182;28;20322;-74
2022/05/11 03:19:01;;;;;;;13.07;7.32;;;;;;;12.05;nan;95395.91;5006089;28;20210;-74
2022/05/11 03:21:29;;;;;;;9.52;6.25;;;;;;;12.26;nan;95392.59;5005720;28;20208;-74
2022/05/11 03:23:55;;;;;;;8.75;6.45;;;;;;;12.13;nan;95393.91;5008723;28;20378;-75
2022/05/11 03:26:22;;;;;;;6.78;5.38;;;;;;;12.47;nan;95396.13;5008828;28;20208;-75
2022/05/11 03:28:49;;;;;;;7.10;6.35;;;;;;;12.62;nan;95402.38;5010166;28;20726;-76
2022/05/11 03:31:17;;;;;;;9.63;5.80;;;;;;;12.54;nan;95397.56;5009067;28;20222;-74
2022/05/11 03:36:38;;;;;;;7.10;5.93;;;;;;;12.08;nan;95398.34;4961511;28;20578;-76
2022/05/11 03:39:05;;;;;;;11.23;6.25;;;;;;;12.14;nan;95402.38;5010876;28;20445;-75
2022/05/11 03:41:32;;;;;;;9.15;6.18;;;;;;;12.29;nan;95401.03;5010598;28;20204;-74
2022/05/11 03:43:58;;;;;;;7.45;5.72;;;;;;;12.55;nan;95400.94;5011435;28;20234;-75
2022/05/11 03:46:25;;;;;;;6.53;5.88;;;;;;;12.70;nan;95397.84;5010548;28;20231;-75
2022/05/11 03:48:52;;;;;;;7.18;5.30;;;;;;;13.06;nan;95399.91;5011753;28;20705;-75
2022/05/11 03:51:19;;;;;;;8.60;6.25;;;;;;;13.38;nan;95399.53;5011018;28;20207;-75
2022/05/11 03:53:47;;;;;;;6.38;5.85;;;;;;;13.62;nan;95406.22;5010099;28;20243;-75
2022/05/11 03:56:13;;;;;;;9.73;6.18;;;;;;;13.81;nan;95400.38;5010163;28;20196;-75
2022/05/11 03:58:40;;;;;;;10.38;5.75;;;;;;;14.19;nan;95401.34;5010624;28;20191;-76
2022/05/11 04:01:07;;;;;;;7.57;5.25;;;;;;;14.30;nan;95394.91;5011650;28;20210;-75
2022/05/11 04:03:34;;;;;;;7.68;5.63;;;;;;;14.24;nan;95404.53;5010757;28;20215;-75
2022/05/11 04:06:01;;;;;;;8.88;5.82;;;;;;;13.73;nan;95398.13;5011539;28;21132;-75
2022/05/11 04:08:27;;;;;;;6.13;5.60;;;;;;;13.85;nan;95407.03;5011408;28;20200;-75
2022/05/11 04:10:56;;;;;;;16.13;12.52;;;;;;;13.89;nan;95406.00;5011761;28;20203;-75
2022/05/11 04:13:23;;;;;;;32.58;18.05;;;;;;;14.47;nan;95412.09;5010888;28;20296;-75
2022/05/11 04:15:51;;;;;;;11.93;7.45;;;;;;;14.50;nan;95423.91;5012062;28;20679;-75
2022/05/11 04:18:18;;;;;;;8.32;5.63;;;;;;;14.71;nan;95417.88;5010145;28;20208;-76
2022/05/11 04:20:45;;;;;;;9.45;5.88;;;;;;;14.95;nan;95433.84;5008908;28;20203;-75
2022/05/11 04:23:12;;;;;;;5.78;5.20;;;;;;;15.10;nan;95422.09;5010116;28;20207;-75
2022/05/11 04:25:39;;;;;;;5.88;5.03;;;;;;;15.37;nan;95431.06;5011601;28;21085;-75
2022/05/11 04:28:11;;;;;;;20.15;12.35;;;;;;;15.60;nan;95438.53;5009594;28;20223;-75
2022/05/11 04:30:38;;;;;;;18.95;13.95;;;;;;;15.96;nan;95435.94;5010774;28;20207;-75
2022/05/11 04:33:05;;;;;;;13.05;8.00;;;;;;;16.21;nan;95435.56;5008452;28;20350;-76
2022/05/11 04:35:34;;;;;;;10.45;6.63;;;;;;;16.22;nan;95429.53;5008988;28;20741;-75
2022/05/11 04:38:02;;;;;;;18.15;5.70;;;;;;;16.22;nan;95441.53;5011408;28;20679;-75
2022/05/11 04:40:30;;;;;;;6.13;5.50;;;;;;;16.38;nan;95442.44;5009329;28;20231;-75
2022/05/11 04:42:57;;;;;;;5.93;5.50;;;;;;;16.51;nan;95437.53;5010829;28;20278;-75
2022/05/11 04:45:25;;;;;;;6.50;5.22;;;;;;;16.60;nan;95439.59;5009388;28;20695;-76
2022/05/11 04:47:52;;;;;;;8.48;5.68;;;;;;;16.70;nan;95447.69;5011849;28;20269;-75
2022/05/11 04:50:19;;;;;;;6.07;4.75;;;;;;;16.50;nan;95446.13;5015054;28;20199;-76
2022/05/11 04:52:46;;;;;;;11.48;5.35;;;;;;;16.40;nan;95450.03;5013622;28;20215;-75
2022/05/11 04:55:12;;;;;;;27.58;16.17;;;;;;;16.72;nan;95443.31;5011646;28;20243;-75
2022/05/11 04:57:39;;;;;;;8.48;7.45;;;;;;;17.24;nan;95456.81;5009690;28;20199;-76
2022/05/11 05:00:10;;;;;;;6.35;5.90;;;;;;;17.81;nan;95447.72;5009233;28;20207;-75
2022/05/11 05:02:39;;;;;;;7.47;5.90;;;;;;;18.28;nan;95450.19;5009297;28;20754;-75
2022/05/11 05:05:08;;;;;;;5.10;4.53;;;;;;;18.79;nan;95455.78;5009339;28;20204;-76
2022/05/11 05:07:35;;;;;;;5.72;4.38;;;;;;;18.82;nan;95449.59;5008786;28;21140;-75
2022/05/11 05:10:02;;;;;;;5.15;4.60;;;;;;;19.30;nan;95449.22;5010142;28;20709;-75
2022/05/11 05:12:29;;;;;;;5.55;4.63;;;;;;;19.91;nan;95447.16;5008313;28;20300;-76
2022/05/11 05:14:56;;;;;;;6.65;5.20;;;;;;;20.99;nan;95450.31;5009098;28;20224;-75
2022/05/11 05:17:23;;;;;;;7.25;4.53;;;;;;;22.57;nan;95441.53;5009041;28;20231;-75
2022/05/11 05:19:52;;;;;;;8.52;4.88;;;;;;;24.59;nan;95426.47;5010928;28;20694;-75
2022/05/11 05:22:19;;;;;;;9.48;4.57;;;;;;;26.08;nan;95434.41;5007924;28;20656;-75
2022/05/11 05:24:46;;;;;;;6.55;4.50;;;;;;;27.77;nan;95437.00;5012000;28;20204;-75
2022/05/11 05:27:13;;;;;;;8.93;5.43;;;;;;;28.53;nan;95433.97;5007911;28;20317;-75
2022/05/11 05:32:43;;;;;;;5.68;5.15;;;;;;;30.47;nan;95452.31;4929839;28;20293;-76
2022/05/11 05:35:16;;;;;;;9.88;4.72;;;;;;;30.62;nan;95449.91;4929245;28;20241;-77
2022/05/11 05:37:43;;;;;;;5.80;5.20;;;;;;;31.91;nan;95450.56;4968136;28;20196;-75
2022/05/11 05:40:10;;;;;;;4.85;4.38;;;;;;;32.68;nan;95449.50;5008556;28;20203;-75
2022/05/11 05:42:39;;;;;;;5.35;4.38;;;;;;;32.17;nan;95447.59;5008416;28;20290;-76
2022/05/11 05:45:07;;;;;;;5.43;5.00;;;;;;;31.80;nan;95459.63;5007685;28;20200;-75
2022/05/11 05:47:34;;;;;;;4.85;4.40;;;;;;;31.79;nan;95453.56;5008227;28;20203;-75
2022/05/11 05:50:01;;;;;;;10.80;6.78;;;;;;;32.77;nan;95458.19;5008560;28;20200;-77
2022/05/11 05:52:29;;;;;;;9.88;8.07;;;;;;;33.16;nan;95457.19;5006863;28;20204;-76
2022/05/11 05:54:58;;;;;;;5.25;4.85;;;;;;;32.14;nan;95467.19;5008714;28;20223;-75
2022/05/11 05:57:26;;;;;;;6.43;4.60;;;;;;;32.93;nan;95460.66;5008995;28;20204;-76
2022/05/11 05:59:53;;;;;;;5.70;5.20;;;;;;;33.61;nan;95464.91;5009504;28;20215;-75
2022/05/11 06:02:20;;;;;;;5.78;5.25;;;;;;;31.59;nan;95454.13;5009421;28;20752;-75
2022/05/11 06:04:48;;;;;;;5.53;4.70;;;;;;;30.65;nan;95473.19;5009165;28;20227;-76
2022/05/11 06:07:16;;;;;;;14.45;7.57;;;;;;;30.10;nan;95471.97;5008116;28;20208;-74
2022/05/11 06:09:45;;;;;;;8.20;5.93;;;;;;;30.66;nan;95474.84;5008796;28;20559;-76
2022/05/11 06:12:14;;;;;;;7.70;5.63;;;;;;;30.21;nan;95470.81;5008800;28;20741;-76
2022/05/11 06:14:42;;;;;;;7.05;5.30;;;;;;;31.09;nan;95476.25;5007694;28;20317;-75
2022/05/11 06:17:13;;;;;;;6.35;5.07;;;;;;;31.55;nan;95477.28;5007773;28;20230;-76
2022/05/11 06:19:41;;;;;;;7.57;4.93;;;;;;;31.45;nan;95477.47;5009275;28;20641;-76
2022/05/11 06:22:08;;;;;;;11.02;7.95;;;;;;;31.40;nan;95479.81;5008798;28;20211;-74
2022/05/11 06:24:35;;;;;;;7.90;5.10;;;;;;;31.00;nan;95478.06;5009144;28;20226;-75
2022/05/11 06:27:04;;;;;;;5.70;4.93;;;;;;;30.75;nan;95473.81;5008087;28;20224;-75
2022/05/11 06:29:30;;;;;;;8.07;4.38;;;;;;;31.15;nan;95480.06;5007317;28;20306;-75
2022/05/11 06:31:57;;;;;;;5.07;4.63;;;;;;;30.97;nan;95475.75;5008186;28;20199;-76
2022/05/11 06:34:24;;;;;;;5.53;4.72;;;;;;;30.83;nan;95481.69;5007827;28;20285;-75
2022/05/11 06:36:51;;;;;;;5.15;4.38;;;;;;;31.21;nan;95474.94;5008758;28;20200;-76
2022/05/11 06:39:18;;;;;;;5.13;4.15;;;;;;;30.93;nan;95478.91;5007574;28;20212;-76
2022/05/11 06:41:45;;;;;;;6.13;5.20;;;;;;;30.95;nan;95480.34;5007436;28;20227;-75
2022/05/11 06:44:13;;;;;;;5.13;4.72;;;;;;;30.68;nan;95478.13;5007488;28;20296;-76
2022/05/11 06:46:40;;;;;;;4.80;4.38;;;;;;;29.79;nan;95482.16;5006987;28;20204;-76
2022/05/11 06:49:07;;;;;;;6.28;5.68;;;;;;;29.48;nan;95477.59;5007766;28;20266;-76
2022/05/11 06:51:34;;;;;;;6.60;6.07;;;;;;;29.26;nan;95476.31;5008730;28;20200;-75
2022/05/11 06:59:33;;;;;;;9.13;5.03;;;;;;;28.18;nan;95477.44;5013214;28;20226;-76
2022/05/11 07:02:03;;;;;;;7.05;5.40;;;;;;;28.16;nan;95432.34;5011650;28;20227;-75
2022/05/11 07:04:33;;;;;;;8.45;5.75;;;;;;;28.01;nan;95471.22;5012562;28;20203;-75
2022/05/11 07:07:00;;;;;;;7.47;4.88;;;;;;;28.06;nan;95478.63;5011571;28;20202;-77
2022/05/11 07:09:32;;;;;;;8.40;5.43;;;;;;;27.88;nan;95469.94;5013177;28;20199;-77
2022/05/11 07:12:18;;;;;;;4.88;4.45;;;;;;;27.41;nan;95483.09;5012936;28;20852;-75
2022/05/11 07:14:47;;;;;;;5.30;4.80;;;;;;;27.41;nan;95470.03;5012131;28;20219;-76
2022/05/11 07:17:23;;;;;;;8.90;5.32;;;;;;;27.49;nan;95464.88;5012165;28;20382;-76
2022/05/11 07:19:50;;;;;;;13.10;7.45;;;;;;;27.16;nan;95474.09;5010895;28;20215;-75
2022/05/11 07:22:17;;;;;;;5.57;4.90;;;;;;;26.95;nan;95466.50;5011917;28;20612;-75
2022/05/11 07:24:44;;;;;;;4.57;4.22;;;;;;;26.72;nan;95463.34;5012573;28;20211;-74
2022/05/11 07:27:11;;;;;;;6.07;4.78;;;;;;;26.42;nan;95459.13;5013390;28;20220;-76
2022/05/11 07:29:38;;;;;;;10.75;6.25;;;;;;;26.01;nan;95465.38;5011328;28;20211;-76
2022/05/11 07:32:07;;;;;;;3.67;3.28;;;;;;;25.46;nan;95453.75;5013192;28;20196;-77
2022/05/11 07:34:34;;;;;;;4.47;4.10;;;;;;;24.93;nan;95466.91;5010523;28;20789;-76
2022/05/11 07:37:01;;;;;;;6.65;3.35;;;;;;;24.89;nan;95465.50;5010287;28;20218;-75
2022/05/11 07:39:28;;;;;;;17.50;10.95;;;;;;;25.22;nan;95456.66;5012554;28;20207;-77
2022/05/11 07:41:55;;;;;;;12.48;6.53;;;;;;;25.60;nan;95455.97;5011913;28;20294;-78
2022/05/11 07:44:23;;;;;;;6.15;5.53;;;;;;;25.55;nan;95449.50;5012933;28;20962;-77
2022/05/11 07:46:50;;;;;;;3.60;3.00;;;;;;;25.30;nan;95443.81;5012119;28;20200;-79
2022/05/11 07:49:19;;;;;;;4.40;3.10;;;;;;;24.80;nan;95440.28;5017233;28;20199;-75
2022/05/11 07:51:46;;;;;;;5.80;4.07;;;;;;;24.96;nan;95445.88;5023768;28;20643;-77
2022/05/11 07:54:13;;;;;;;3.58;2.70;;;;;;;25.05;nan;95447.69;5017789;28;20231;-77
2022/05/11 08:02:10;;;;;;;4.97;2.80;;;;;;;25.00;nan;95442.03;5009893;28;20210;-78
2022/05/11 08:04:39;;;;;;;4.70;3.65;;;;;;;24.92;nan;95422.81;5011683;28;20211;-72
2022/05/11 08:07:06;;;;;;;4.05;3.63;;;;;;;25.13;nan;95435.81;5009467;28;20200;-72
2022/05/11 08:09:33;;;;;;;5.18;3.50;;;;;;;25.36;nan;95429.47;5009270;28;20204;-71
2022/05/11 08:12:00;;;;;;;10.15;9.10;;;;;;;25.58;nan;95439.66;5009817;28;20203;-71
2022/05/11 08:14:27;;;;;;;5.97;5.35;;;;;;;25.27;nan;95427.63;5009683;28;20754;-72
2022/05/11 08:16:54;;;;;;;4.28;3.22;;;;;;;25.33;nan;95437.53;5010981;28;20707;-70
2022/05/11 08:19:22;;;;;;;4.07;3.75;;;;;;;25.48;nan;95428.41;5009399;28;20203;-75
2022/05/11 08:21:52;;;;;;;4.13;3.83;;;;;;;25.52;nan;95432.38;5008961;28;20203;-71
2022/05/11 08:24:20;;;;;;;8.57;6.95;;;;;;;25.48;nan;95409.38;5009197;28;22215;-72
2022/05/11 08:26:47;;;;;;;6.20;3.25;;;;;;;25.52;nan;95427.16;5004509;28;20291;-71
2022/05/11 08:33:19;;;;;;;3.97;3.67;;;;;;;25.57;nan;95419.78;5009255;28;20684;-71
2022/05/11 08:34:47;;;;;;;3.97;3.50;;;;;;;25.36;nan;95416.44;5009512;28;20713;-70
2022/05/11 08:37:16;;;;;;;3.28;3.00;;;;;;;25.06;nan;95430.31;5008428;28;20691;-73
2022/05/11 08:39:43;;;;;;;3.70;2.70;;;;;;;25.19;nan;95424.88;5009695;28;20200;-72
2022/05/11 08:42:11;;;;;;;2.80;2.60;;;;;;;25.29;nan;95415.31;5007583;28;20211;-71
2022/05/11 08:44:45;;;;;;;12.45;3.42;;;;;;;25.28;nan;95413.69;5008068;28;20207;-70
2022/05/11 08:47:16;;;;;;;7.18;4.65;;;;;;;25.21;nan;95417.78;5009932;28;20202;-70
2022/05/11 08:49:52;;;;;;;9.70;5.63;;;;;;;25.36;nan;95424.25;5008674;28;20208;-71
2022/05/11 08:52:32;;;;;;;5.43;5.03;;;;;;;25.07;nan;95417.16;5008165;28;20218;-71
2022/05/11 08:55:08;;;;;;;7.85;7.13;;;;;;;24.98;nan;95417.97;5009436;28;20686;-70
2022/05/11 08:57:36;;;;;;;3.92;3.63;;;;;;;25.07;nan;95422.38;5009204;28;20199;-71
2022/05/11 09:00:07;;;;;;;4.03;3.72;;;;;;;25.27;nan;95418.06;5007518;28;20262;-70
2022/05/11 09:02:45;;;;;;;4.13;3.05;;;;;;;24.49;nan;95421.22;5005471;28;20997;-71
2022/05/11 09:05:12;;;;;;;5.00;2.20;;;;;;;23.94;nan;95419.69;5005696;28;20615;-72
2022/05/11 09:07:44;;;;;;;6.03;2.78;;;;;;;24.12;nan;95418.19;5007502;28;21300;-73
2022/05/11 09:10:23;;;;;;;8.15;7.22;;;;;;;24.58;nan;95419.63;5006010;28;20837;-73
2022/05/11 09:12:59;;;;;;;6.55;4.95;;;;;;;24.67;nan;95424.06;4993513;28;20227;-71
2022/05/11 09:15:47;;;;;;;6.50;5.43;;;;;;;24.88;nan;95417.06;5009737;28;20464;-71
2022/05/11 09:18:14;;;;;;;5.18;4.75;;;;;;;24.91;nan;95414.19;5007824;28;20232;-71
2022/05/11 09:20:46;;;;;;;5.63;5.13;;;;;;;25.14;nan;95417.47;5008120;28;20192;-73
2022/05/11 09:23:14;;;;;;;3.20;3.00;;;;;;;25.22;nan;95406.44;5009145;28;20236;-72
2022/05/11 09:25:57;;;;;;;4.10;3.10;;;;;;;24.98;nan;95401.56;5008679;28;20201;-73
2022/05/11 09:28:27;;;;;;;2.92;2.63;;;;;;;25.02;nan;95413.31;5008698;28;20217;-71
2022/05/11 09:31:02;;;;;;;3.22;3.03;;;;;;;25.17;nan;95404.22;5008665;28;20200;-72
2022/05/11 09:33:33;;;;;;;5.65;3.40;;;;;;;25.14;nan;95401.06;5009760;28;20676;-72
2022/05/11 09:36:03;;;;;;;3.45;2.85;;;;;;;25.21;nan;95408.22;5008598;28;20311;-71
2022/05/11 09:38:38;;;;;;;2.63;2.42;;;;;;;25.01;nan;95396.88;5009385;28;20197;-73
2022/05/11 09:41:14;;;;;;;2.78;2.67;;;;;;;24.91;nan;95409.00;5026096;28;20778;-72
2022/05/11 09:43:44;;;;;;;4.07;2.78;;;;;;;24.85;nan;95391.31;5028707;28;20192;-72
2022/05/11 09:46:23;;;;;;;4.13;3.70;;;;;;;25.30;nan;95401.38;5010515;28;20207;-72
2022/05/11 09:49:00;;;;;;;7.03;6.28;;;;;;;25.28;nan;95403.28;5009491;28;20193;-72
2022/05/11 09:51:33;;;;;;;7.13;6.07;;;;;;;25.03;nan;95400.19;5011086;28;20212;-73
2022/05/11 09:54:16;;;;;;;2.70;2.60;;;;;;;24.90;nan;95393.53;5010877;28;20196;-72
2022/05/11 09:56:52;;;;;;;3.08;2.65;;;;;;;25.22;nan;95393.41;5010969;28;20322;-72
2022/05/11 09:59:26;;;;;;;2.45;2.25;;;;;;;25.17;nan;95380.81;5011081;28;20204;-74
2022/05/11 10:01:59;;;;;;;3.38;2.78;;;;;;;25.13;nan;95386.41;5011005;28;20723;-70
2022/05/11 10:04:34;;;;;;;5.57;3.88;;;;;;;25.73;nan;95382.88;5013831;28;20635;-72
2022/05/11 10:07:02;;;;;;;6.40;4.03;;;;;;;25.84;nan;95371.50;5030745;28;20683;-72
2022/05/11 10:09:35;;;;;;;4.68;4.38;;;;;;;25.72;nan;95378.63;5029637;28;20287;-74
2022/05/11 10:12:05;;;;;;;9.90;4.32;;;;;;;25.37;nan;95379.06;5030453;28;20235;-71
2022/05/11 10:23:02;;;;;;;3.63;3.28;;;;;;;25.60;nan;95372.69;5030619;28;20199;-71
2022/05/11 10:25:35;;;;;;;23.73;17.35;;;;;;;26.10;nan;95364.75;5017483;28;20203;-72
2022/05/11 10:28:13;;;;;;;2.85;2.65;;;;;;;26.37;nan;95364.06;5010546;28;20700;-73
2022/05/11 10:30:50;;;;;;;2.85;2.65;;;;;;;26.68;nan;95364.69;5010594;28;20231;-74
2022/05/11 10:33:44;;;;;;;3.05;2.30;;;;;;;26.81;nan;95361.75;5010287;28;20203;-75
2022/05/11 10:36:19;;;;;;;3.95;3.67;;;;;;;26.75;nan;95353.53;5024106;28;20652;-74
2022/05/11 10:39:00;;;;;;;2.38;2.28;;;;;;;26.38;nan;95352.69;5030315;28;20199;-73
2022/05/11 10:41:35;;;;;;;5.35;2.97;;;;;;;26.27;nan;95358.84;5009930;28;20749;-72
2022/05/11 10:44:07;;;;;;;7.72;3.03;;;;;;;26.10;nan;95354.34;5009608;28;20196;-72
2022/05/11 10:46:42;;;;;;;3.00;2.50;;;;;;;25.59;nan;95365.81;5010527;28;20211;-73
2022/05/11 10:49:34;;;;;;;2.45;2.15;;;;;;;25.54;nan;95369.78;5013590;28;20262;-72
2022/05/11 10:52:19;;;;;;;3.33;3.10;;;;;;;25.62;nan;95369.94;5017046;28;20196;-73
2022/05/11 10:54:55;;;;;;;4.18;3.35;;;;;;;25.33;nan;95368.09;5010114;28;20200;-73
2022/05/11 10:57:32;;;;;;;3.10;2.90;;;;;;;24.86;nan;95364.38;5009818;28;20696;-74
2022/05/11 11:00:07;;;;;;;4.05;3.75;;;;;;;24.62;nan;95374.25;5018373;28;20215;-73
2022/05/11 11:03:03;;;;;;;3.45;3.25;;;;;;;24.39;nan;95378.78;5009892;28;20196;-73
2022/05/11 11:05:37;;;;;;;8.98;2.83;;;;;;;23.89;nan;95375.09;5000009;28;20203;-76
2022/05/11 11:08:15;;;;;;;4.78;2.97;;;;;;;23.53;nan;95387.47;5007422;28;20634;-77
2022/05/11 11:10:49;;;;;;;5.57;2.78;;;;;;;22.99;nan;95390.84;5006861;28;20323;-74
2022/05/11 11:13:37;;;;;;;3.55;3.35;;;;;;;22.40;nan;95398.78;5007708;28;20251;-73
2022/05/11 11:16:05;;;;;;;3.63;3.25;;;;;;;21.66;nan;95402.50;5007559;28;20321;-73
2022/05/11 11:18:35;;;;;;;2.67;1.95;;;;;;;21.38;nan;95407.97;5006255;28;20302;-72
2022/05/11 11:21:03;;;;;;;2.67;2.47;;;;;;;20.96;nan;95415.19;5009433;28;20199;-72
2022/05/11 11:23:37;;;;;;;5.68;3.47;;;;;;;20.78;nan;95416.44;5008381;28;20210;-74
2022/05/11 11:26:07;;;;;;;2.58;2.38;;;;;;;20.57;nan;95410.94;5007889;28;20708;-72
2022/05/11 11:29:25;;;;;;;2.88;2.70;;;;;;;20.24;nan;95414.00;5007720;28;20223;-72
2022/05/11 11:32:15;;;;;;;3.47;2.60;;;;;;;20.37;nan;95406.28;4966394;28;20197;-72
2022/05/11 11:34:45;;;;;;;2.80;2.63;;;;;;;20.30;nan;95395.50;5005245;28;20195;-73
2022/05/11 11:37:41;;;;;;;5.13;2.65;;;;;;;20.52;nan;95407.03;5008836;28;20723;-72
2022/05/11 11:40:27;;;;;;;3.20;2.63;;;;;;;20.51;nan;95397.66;5009334;28;20209;-72
2022/05/11 11:42:54;;;;;;;5.10;3.15;;;;;;;20.60;nan;95394.41;5009623;28;20199;-73
2022/05/11 11:46:04;;;;;;;2.67;2.47;;;;;;;20.58;nan;95393.69;5013354;28;20271;-73
2022/05/11 11:48:31;;;;;;;3.58;3.10;;;;;;;20.90;nan;95407.84;5013126;28;20193;-73
2022/05/11 11:51:01;;;;;;;4.10;2.78;;;;;;;20.70;nan;95398.03;5012577;28;20258;-73
2022/05/11 11:53:33;;;;;;;2.78;2.58;;;;;;;21.09;nan;95407.38;5013390;28;20204;-73
2022/05/11 11:56:36;;;;;;;2.67;2.40;;;;;;;21.02;nan;95396.66;5012272;28;20801;-75
2022/05/11 11:59:05;;;;;;;2.47;2.28;;;;;;;21.24;nan;95401.19;5008798;28;20200;-73
2022/05/11 12:01:38;;;;;;;2.72;2.53;;;;;;;21.42;nan;95406.81;5012891;28;20267;-73
2022/05/11 12:04:15;;;;;;;2.92;2.55;;;;;;;21.80;nan;95414.41;5012786;28;20247;-72
2022/05/11 12:15:14;;;;;;;4.90;4.00;;;;;;;22.12;nan;95416.47;5012756;28;20239;-73
2022/05/11 12:17:43;;;;;;;3.58;3.15;;;;;;;21.95;nan;95417.69;5012186;28;20268;-73
2022/05/11 12:20:14;;;;;;;14.05;8.85;;;;;;;21.73;nan;95419.22;5012495;28;20668;-75
2022/05/11 12:22:44;;;;;;;5.38;3.92;;;;;;;21.69;nan;95415.22;5012806;28;20744;-73
2022/05/11 12:25:29;;;;;;;2.83;2.60;;;;;;;21.67;nan;95414.50;5012732;28;20196;-75
2022/05/11 12:27:58;;;;;;;3.17;2.97;;;;;;;21.72;nan;95406.41;5012479;28;20722;-72
2022/05/11 12:30:29;;;;;;;6.05;3.38;;;;;;;21.71;nan;95405.56;5012502;28;20590;-73
2022/05/11 12:32:59;;;;;;;3.92;3.63;;;;;;;21.79;nan;95405.00;5012631;28;20283;-73
2022/05/11 12:35:32;;;;;;;24.27;16.65;;;;;;;21.89;nan;95389.66;5012243;28;20197;-72
2022/05/11 12:38:02;;;;;;;15.13;10.25;;;;;;;21.70;nan;95385.00;5012453;28;20196;-74
2022/05/11 12:40:33;;;;;;;12.95;7.65;;;;;;;21.77;nan;95367.28;5012403;28;20192;-74
2022/05/11 12:43:08;;;;;;;5.40;4.85;;;;;;;22.03;nan;95373.94;5011453;28;20231;-74
2022/05/11 12:45:39;;;;;;;14.40;9.52;;;;;;;22.00;nan;95384.53;5012693;28;20203;-72
2022/05/11 12:48:10;;;;;;;7.88;5.25;;;;;;;21.91;nan;95380.00;5012205;28;20200;-74